sensor_id;sensor_type;location;lat;lon;timestamp;P1;durP1;ratioP1;P2;durP2;ratioP2
60306;SDS011;46155;52.364;6.580;2022-08-04T03:01:36;12.60;;;11.63;;
60306;SDS011;46155;52.364;6.580;2022-08-04T03:04:22;13.07;;;12.07;;
60306;SDS011;46155;52.364;6.580;2022-08-04T03:23:28;12.10;;;11.13;;
60306;SDS011;46155;52.364;6.580;2022-08-04T03:29:51;13.83;;;11.30;;
60306;SDS011;46155;52.364;6.580;2022-08-04T03:32:33;12.90;;;11.83;;
60306;SDS011;46155;52.364;6.580;2022-08-04T03:50:06;13.10;;;11.80;;
60306;SDS011;46155;52.364;6.580;2022-08-04T04:07:11;11.43;;;10.63;;
60306;SDS011;46155;52.364;6.580;2022-08-04T04:13:15;9.40;;;8.67;;
60306;SDS011;46155;52.364;6.580;2022-08-04T04:18:43;9.30;;;8.10;;
60306;SDS011;46155;52.364;6.580;2022-08-04T04:27:57;11.00;;;7.93;;
60306;SDS011;46155;52.364;6.580;2022-08-04T04:30:15;10.23;;;9.10;;
60306;SDS011;46155;52.364;6.580;2022-08-04T04:46:42;14.93;;;8.20;;
60306;SDS011;46155;52.364;6.580;2022-08-04T04:57:37;13.00;;;7.17;;
60306;SDS011;46155;52.364;6.580;2022-08-04T05:00:06;8.67;;;7.97;;
60306;SDS011;46155;52.364;6.580;2022-08-04T05:14:02;10.60;;;8.40;;
60306;SDS011;46155;52.364;6.580;2022-08-04T05:16:43;10.77;;;7.23;;
60306;SDS011;46155;52.364;6.580;2022-08-04T05:22:21;8.37;;;7.63;;
60306;SDS011;46155;52.364;6.580;2022-08-04T05:24:52;9.33;;;7.33;;
60306;SDS011;46155;52.364;6.580;2022-08-04T05:27:26;9.40;;;7.07;;
60306;SDS011;46155;52.364;6.580;2022-08-04T05:29:56;7.23;;;6.53;;
60306;SDS011;46155;52.364;6.580;2022-08-04T05:32:30;6.80;;;6.30;;
60306;SDS011;46155;52.364;6.580;2022-08-04T05:35:06;7.57;;;6.63;;
60306;SDS011;46155;52.364;6.580;2022-08-04T05:37:36;11.83;;;7.13;;
60306;SDS011;46155;52.364;6.580;2022-08-04T05:40:03;14.37;;;6.97;;
60306;SDS011;46155;52.364;6.580;2022-08-04T05:42:31;10.37;;;7.00;;
60306;SDS011;46155;52.364;6.580;2022-08-04T05:44:59;7.33;;;6.50;;
60306;SDS011;46155;52.364;6.580;2022-08-04T05:47:26;8.33;;;6.47;;
60306;SDS011;46155;52.364;6.580;2022-08-04T05:49:54;11.20;;;6.90;;
60306;SDS011;46155;52.364;6.580;2022-08-04T05:52:20;8.60;;;7.37;;
60306;SDS011;46155;52.364;6.580;2022-08-04T05:54:48;6.67;;;6.10;;
60306;SDS011;46155;52.364;6.580;2022-08-04T05:57:15;7.43;;;6.73;;
60306;SDS011;46155;52.364;6.580;2022-08-04T05:59:41;13.23;;;9.00;;
60306;SDS011;46155;52.364;6.580;2022-08-04T06:02:10;9.97;;;8.13;;
60306;SDS011;46155;52.364;6.580;2022-08-04T06:04:39;11.23;;;8.60;;
60306;SDS011;46155;52.364;6.580;2022-08-04T06:07:06;9.57;;;8.57;;
60306;SDS011;46155;52.364;6.580;2022-08-04T06:09:32;9.47;;;8.23;;
60306;SDS011;46155;52.364;6.580;2022-08-04T06:11:59;8.50;;;7.80;;
60306;SDS011;46155;52.364;6.580;2022-08-04T06:14:28;10.50;;;8.20;;
60306;SDS011;46155;52.364;6.580;2022-08-04T06:17:00;8.60;;;7.77;;
60306;SDS011;46155;52.364;6.580;2022-08-04T06:19:28;9.40;;;8.60;;
60306;SDS011;46155;52.364;6.580;2022-08-04T06:21:54;7.87;;;7.07;;
60306;SDS011;46155;52.364;6.580;2022-08-04T06:24:23;9.23;;;7.60;;
60306;SDS011;46155;52.364;6.580;2022-08-04T06:26:52;7.47;;;6.97;;
60306;SDS011;46155;52.364;6.580;2022-08-04T06:29:19;9.33;;;7.43;;
60306;SDS011;46155;52.364;6.580;2022-08-04T06:31:50;8.07;;;6.73;;
60306;SDS011;46155;52.364;6.580;2022-08-04T06:34:26;8.67;;;7.80;;
60306;SDS011;46155;52.364;6.580;2022-08-04T06:36:54;10.33;;;8.67;;
60306;SDS011;46155;52.364;6.580;2022-08-04T06:39:21;7.93;;;7.23;;
60306;SDS011;46155;52.364;6.580;2022-08-04T06:41:49;9.20;;;8.17;;
60306;SDS011;46155;52.364;6.580;2022-08-04T06:44:16;12.03;;;9.13;;
60306;SDS011;46155;52.364;6.580;2022-08-04T06:46:44;10.27;;;8.97;;
60306;SDS011;46155;52.364;6.580;2022-08-04T06:49:09;11.97;;;7.97;;
60306;SDS011;46155;52.364;6.580;2022-08-04T06:51:35;11.03;;;7.70;;
60306;SDS011;46155;52.364;6.580;2022-08-04T06:54:02;10.20;;;8.30;;
60306;SDS011;46155;52.364;6.580;2022-08-04T06:56:29;12.53;;;8.60;;
60306;SDS011;46155;52.364;6.580;2022-08-04T06:58:55;13.07;;;8.90;;
60306;SDS011;46155;52.364;6.580;2022-08-04T07:01:21;12.27;;;8.97;;
60306;SDS011;46155;52.364;6.580;2022-08-04T07:03:50;8.27;;;7.50;;
60306;SDS011;46155;52.364;6.580;2022-08-04T07:06:15;9.97;;;8.80;;
60306;SDS011;46155;52.364;6.580;2022-08-04T07:08:42;8.47;;;7.80;;
60306;SDS011;46155;52.364;6.580;2022-08-04T07:11:08;10.23;;;7.73;;
60306;SDS011;46155;52.364;6.580;2022-08-04T07:13:34;8.67;;;7.80;;
60306;SDS011;46155;52.364;6.580;2022-08-04T07:16:01;14.53;;;9.30;;
60306;SDS011;46155;52.364;6.580;2022-08-04T07:18:26;9.43;;;8.50;;
60306;SDS011;46155;52.364;6.580;2022-08-04T07:20:54;11.03;;;8.20;;
60306;SDS011;46155;52.364;6.580;2022-08-04T07:23:24;11.73;;;7.93;;
60306;SDS011;46155;52.364;6.580;2022-08-04T07:25:50;8.93;;;7.40;;
60306;SDS011;46155;52.364;6.580;2022-08-04T07:28:21;10.27;;;7.70;;
60306;SDS011;46155;52.364;6.580;2022-08-04T07:30:49;13.63;;;7.80;;
60306;SDS011;46155;52.364;6.580;2022-08-04T07:33:17;8.90;;;8.03;;
60306;SDS011;46155;52.364;6.580;2022-08-04T07:35:43;12.10;;;8.27;;
60306;SDS011;46155;52.364;6.580;2022-08-04T07:38:09;11.10;;;8.20;;
60306;SDS011;46155;52.364;6.580;2022-08-04T07:40:37;9.27;;;8.33;;
60306;SDS011;46155;52.364;6.580;2022-08-04T07:43:03;9.20;;;8.40;;
60306;SDS011;46155;52.364;6.580;2022-08-04T07:45:29;8.50;;;7.77;;
60306;SDS011;46155;52.364;6.580;2022-08-04T07:47:55;10.57;;;7.60;;
60306;SDS011;46155;52.364;6.580;2022-08-04T07:50:21;9.87;;;7.07;;
60306;SDS011;46155;52.364;6.580;2022-08-04T07:52:47;10.57;;;7.20;;
60306;SDS011;46155;52.364;6.580;2022-08-04T07:55:13;9.37;;;7.27;;
60306;SDS011;46155;52.364;6.580;2022-08-04T07:57:39;9.93;;;6.83;;
60306;SDS011;46155;52.364;6.580;2022-08-04T08:00:04;7.43;;;6.80;;
60306;SDS011;46155;52.364;6.580;2022-08-04T08:02:30;8.00;;;6.63;;
60306;SDS011;46155;52.364;6.580;2022-08-04T08:04:58;10.43;;;6.77;;
60306;SDS011;46155;52.364;6.580;2022-08-04T08:07:25;10.40;;;7.30;;
60306;SDS011;46155;52.364;6.580;2022-08-04T08:09:50;7.63;;;6.93;;
60306;SDS011;46155;52.364;6.580;2022-08-04T08:12:15;9.63;;;6.77;;
60306;SDS011;46155;52.364;6.580;2022-08-04T08:14:41;13.13;;;8.00;;
60306;SDS011;46155;52.364;6.580;2022-08-04T08:17:07;8.83;;;7.10;;
60306;SDS011;46155;52.364;6.580;2022-08-04T08:19:34;7.17;;;6.47;;
60306;SDS011;46155;52.364;6.580;2022-08-04T08:21:59;8.40;;;6.63;;
60306;SDS011;46155;52.364;6.580;2022-08-04T08:24:29;7.50;;;6.83;;
60306;SDS011;46155;52.364;6.580;2022-08-04T08:26:58;7.10;;;6.57;;
60306;SDS011;46155;52.364;6.580;2022-08-04T08:29:28;7.30;;;6.27;;
60306;SDS011;46155;52.364;6.580;2022-08-04T08:31:53;7.10;;;6.50;;
60306;SDS011;46155;52.364;6.580;2022-08-04T08:34:19;7.17;;;6.50;;
60306;SDS011;46155;52.364;6.580;2022-08-04T08:36:50;7.60;;;6.80;;
60306;SDS011;46155;52.364;6.580;2022-08-04T08:39:28;9.33;;;7.20;;
60306;SDS011;46155;52.364;6.580;2022-08-04T08:44:55;7.30;;;6.67;;
60306;SDS011;46155;52.364;6.580;2022-08-04T08:50:29;6.70;;;6.03;;
60306;SDS011;46155;52.364;6.580;2022-08-04T09:01:19;7.40;;;6.80;;
60306;SDS011;46155;52.364;6.580;2022-08-04T09:12:29;7.60;;;6.83;;
60306;SDS011;46155;52.364;6.580;2022-08-04T09:15:11;12.60;;;7.50;;
60306;SDS011;46155;52.364;6.580;2022-08-04T09:26:03;9.60;;;7.30;;
60306;SDS011;46155;52.364;6.580;2022-08-04T09:28:42;9.15;;;7.07;;
60306;SDS011;46155;52.364;6.580;2022-08-04T09:31:22;7.20;;;6.70;;
60306;SDS011;46155;52.364;6.580;2022-08-04T09:55:39;7.85;;;7.13;;
60306;SDS011;46155;52.364;6.580;2022-08-04T09:58:07;7.93;;;7.03;;
60306;SDS011;46155;52.364;6.580;2022-08-04T10:00:47;7.18;;;6.68;;
60306;SDS011;46155;52.364;6.580;2022-08-04T10:03:26;11.65;;;7.70;;
60306;SDS011;46155;52.364;6.580;2022-08-04T10:09:08;8.68;;;7.53;;
60306;SDS011;46155;52.364;6.580;2022-08-04T10:12:12;8.00;;;7.47;;
60306;SDS011;46155;52.364;6.580;2022-08-04T10:14:51;8.02;;;7.22;;
60306;SDS011;46155;52.364;6.580;2022-08-04T10:17:36;8.93;;;7.53;;
60306;SDS011;46155;52.364;6.580;2022-08-04T10:23:07;9.60;;;7.68;;
60306;SDS011;46155;52.364;6.580;2022-08-04T10:28:43;10.75;;;7.60;;
60306;SDS011;46155;52.364;6.580;2022-08-04T10:31:18;8.23;;;7.43;;
60306;SDS011;46155;52.364;6.580;2022-08-04T10:36:40;8.30;;;7.70;;
60306;SDS011;46155;52.364;6.580;2022-08-04T10:39:14;9.10;;;7.70;;
60306;SDS011;46155;52.364;6.580;2022-08-04T10:44:19;7.28;;;6.55;;
60306;SDS011;46155;52.364;6.580;2022-08-04T10:47:03;8.70;;;6.97;;
60306;SDS011;46155;52.364;6.580;2022-08-04T10:49:36;8.25;;;7.43;;
60306;SDS011;46155;52.364;6.580;2022-08-04T10:54:42;8.00;;;7.30;;
60306;SDS011;46155;52.364;6.580;2022-08-04T10:57:17;13.00;;;8.07;;
60306;SDS011;46155;52.364;6.580;2022-08-04T11:02:49;9.23;;;8.20;;
60306;SDS011;46155;52.364;6.580;2022-08-04T11:11:13;8.88;;;7.97;;
60306;SDS011;46155;52.364;6.580;2022-08-04T11:13:53;8.07;;;7.38;;
60306;SDS011;46155;52.364;6.580;2022-08-04T11:19:36;8.37;;;7.67;;
60306;SDS011;46155;52.364;6.580;2022-08-04T11:22:13;10.80;;;8.77;;
60306;SDS011;46155;52.364;6.580;2022-08-04T11:27:15;8.40;;;7.33;;
60306;SDS011;46155;52.364;6.580;2022-08-04T11:32:41;6.90;;;6.40;;
60306;SDS011;46155;52.364;6.580;2022-08-04T11:35:12;9.33;;;6.60;;
60306;SDS011;46155;52.364;6.580;2022-08-04T11:38:23;9.67;;;6.70;;
60306;SDS011;46155;52.364;6.580;2022-08-04T11:41:06;6.87;;;6.37;;
60306;SDS011;46155;52.364;6.580;2022-08-04T11:46:19;7.00;;;6.40;;
60306;SDS011;46155;52.364;6.580;2022-08-04T11:49:04;7.13;;;6.63;;
60306;SDS011;46155;52.364;6.580;2022-08-04T11:51:32;17.30;;;7.40;;
60306;SDS011;46155;52.364;6.580;2022-08-04T11:54:00;9.27;;;8.47;;
60306;SDS011;46155;52.364;6.580;2022-08-04T11:56:26;7.70;;;7.03;;
60306;SDS011;46155;52.364;6.580;2022-08-04T11:58:52;9.87;;;8.97;;
60306;SDS011;46155;52.364;6.580;2022-08-04T12:12:06;10.30;;;9.63;;
60306;SDS011;46155;52.364;6.580;2022-08-04T12:15:15;11.37;;;9.77;;
60306;SDS011;46155;52.364;6.580;2022-08-04T12:20:50;9.80;;;9.00;;
60306;SDS011;46155;52.364;6.580;2022-08-04T12:23:32;10.30;;;9.60;;
60306;SDS011;46155;52.364;6.580;2022-08-04T12:26:04;10.50;;;9.70;;
60306;SDS011;46155;52.364;6.580;2022-08-04T12:28:32;9.73;;;9.03;;
60306;SDS011;46155;52.364;6.580;2022-08-04T12:34:01;10.87;;;9.90;;
60306;SDS011;46155;52.364;6.580;2022-08-04T12:36:34;15.47;;;11.10;;
60306;SDS011;46155;52.364;6.580;2022-08-04T12:39:11;13.07;;;12.00;;
60306;SDS011;46155;52.364;6.580;2022-08-04T12:44:52;13.73;;;12.27;;
60306;SDS011;46155;52.364;6.580;2022-08-04T12:47:22;12.60;;;11.70;;
60306;SDS011;46155;52.364;6.580;2022-08-04T12:49:49;15.13;;;12.40;;
60306;SDS011;46155;52.364;6.580;2022-08-04T12:52:16;14.20;;;12.43;;
60306;SDS011;46155;52.364;6.580;2022-08-04T12:54:44;14.40;;;11.67;;
60306;SDS011;46155;52.364;6.580;2022-08-04T12:57:12;12.80;;;11.50;;
60306;SDS011;46155;52.364;6.580;2022-08-04T12:59:40;12.17;;;11.37;;
60306;SDS011;46155;52.364;6.580;2022-08-04T13:02:13;11.93;;;11.07;;
60306;SDS011;46155;52.364;6.580;2022-08-04T13:04:42;11.07;;;10.17;;
60306;SDS011;46155;52.364;6.580;2022-08-04T13:07:13;11.67;;;10.77;;
60306;SDS011;46155;52.364;6.580;2022-08-04T13:09:43;12.60;;;11.30;;
60306;SDS011;46155;52.364;6.580;2022-08-04T13:12:13;10.70;;;10.07;;
60306;SDS011;46155;52.364;6.580;2022-08-04T13:14:43;12.83;;;10.53;;
60306;SDS011;46155;52.364;6.580;2022-08-04T13:17:11;10.57;;;9.77;;
60306;SDS011;46155;52.364;6.580;2022-08-04T13:19:37;10.90;;;10.10;;
60306;SDS011;46155;52.364;6.580;2022-08-04T13:22:03;11.83;;;9.63;;
60306;SDS011;46155;52.364;6.580;2022-08-04T13:24:30;10.70;;;9.80;;
60306;SDS011;46155;52.364;6.580;2022-08-04T13:27:02;12.10;;;10.83;;
60306;SDS011;46155;52.364;6.580;2022-08-04T13:29:43;11.23;;;10.27;;
60306;SDS011;46155;52.364;6.580;2022-08-04T13:32:14;10.00;;;9.30;;
60306;SDS011;46155;52.364;6.580;2022-08-04T13:34:46;9.60;;;9.10;;
60306;SDS011;46155;52.364;6.580;2022-08-04T13:37:14;8.90;;;8.00;;
60306;SDS011;46155;52.364;6.580;2022-08-04T13:39:44;9.40;;;8.63;;
60306;SDS011;46155;52.364;6.580;2022-08-04T13:42:12;9.77;;;8.90;;
60306;SDS011;46155;52.364;6.580;2022-08-04T13:44:39;8.93;;;8.27;;
60306;SDS011;46155;52.364;6.580;2022-08-04T13:47:13;9.47;;;8.57;;
60306;SDS011;46155;52.364;6.580;2022-08-04T13:50:04;8.17;;;7.47;;
60306;SDS011;46155;52.364;6.580;2022-08-04T13:52:34;8.77;;;8.13;;
60306;SDS011;46155;52.364;6.580;2022-08-04T13:54:59;9.20;;;8.30;;
60306;SDS011;46155;52.364;6.580;2022-08-04T13:57:32;8.10;;;7.53;;
60306;SDS011;46155;52.364;6.580;2022-08-04T14:00:07;7.83;;;7.20;;
60306;SDS011;46155;52.364;6.580;2022-08-04T14:02:43;7.30;;;6.67;;
60306;SDS011;46155;52.364;6.580;2022-08-04T14:05:16;7.47;;;6.77;;
60306;SDS011;46155;52.364;6.580;2022-08-04T14:07:52;7.80;;;7.03;;
60306;SDS011;46155;52.364;6.580;2022-08-04T14:10:22;7.50;;;7.10;;
60306;SDS011;46155;52.364;6.580;2022-08-04T14:12:48;7.47;;;7.07;;
60306;SDS011;46155;52.364;6.580;2022-08-04T14:15:30;6.67;;;6.27;;
60306;SDS011;46155;52.364;6.580;2022-08-04T14:18:17;7.20;;;6.43;;
60306;SDS011;46155;52.364;6.580;2022-08-04T14:23:27;5.63;;;5.23;;
60306;SDS011;46155;52.364;6.580;2022-08-04T14:25:52;7.13;;;6.60;;
60306;SDS011;46155;52.364;6.580;2022-08-04T14:28:27;8.93;;;6.20;;
60306;SDS011;46155;52.364;6.580;2022-08-04T14:31:07;6.23;;;5.83;;
60306;SDS011;46155;52.364;6.580;2022-08-04T14:33:39;6.20;;;5.80;;
60306;SDS011;46155;52.364;6.580;2022-08-04T14:36:06;6.70;;;6.30;;
60306;SDS011;46155;52.364;6.580;2022-08-04T14:38:46;5.77;;;5.47;;
60306;SDS011;46155;52.364;6.580;2022-08-04T14:41:15;7.43;;;6.23;;
60306;SDS011;46155;52.364;6.580;2022-08-04T14:43:42;6.50;;;5.80;;
60306;SDS011;46155;52.364;6.580;2022-08-04T14:46:09;6.20;;;5.80;;
60306;SDS011;46155;52.364;6.580;2022-08-04T14:48:35;6.97;;;6.30;;
60306;SDS011;46155;52.364;6.580;2022-08-04T14:51:00;6.27;;;5.80;;
60306;SDS011;46155;52.364;6.580;2022-08-04T14:53:27;7.13;;;5.83;;
60306;SDS011;46155;52.364;6.580;2022-08-04T14:55:56;5.70;;;5.30;;
60306;SDS011;46155;52.364;6.580;2022-08-04T14:58:24;6.63;;;6.13;;
60306;SDS011;46155;52.364;6.580;2022-08-04T15:00:53;6.33;;;5.93;;
60306;SDS011;46155;52.364;6.580;2022-08-04T15:03:21;7.07;;;6.47;;
60306;SDS011;46155;52.364;6.580;2022-08-04T15:05:47;7.33;;;6.33;;
60306;SDS011;46155;52.364;6.580;2022-08-04T15:08:13;6.50;;;6.10;;
60306;SDS011;46155;52.364;6.580;2022-08-04T15:10:39;7.03;;;6.00;;
60306;SDS011;46155;52.364;6.580;2022-08-04T15:13:06;6.30;;;5.93;;
60306;SDS011;46155;52.364;6.580;2022-08-04T15:15:32;6.73;;;6.30;;
60306;SDS011;46155;52.364;6.580;2022-08-04T15:17:58;6.27;;;5.93;;
60306;SDS011;46155;52.364;6.580;2022-08-04T15:20:24;6.87;;;6.27;;
60306;SDS011;46155;52.364;6.580;2022-08-04T15:22:49;6.30;;;5.90;;
60306;SDS011;46155;52.364;6.580;2022-08-04T15:25:15;6.10;;;5.80;;
60306;SDS011;46155;52.364;6.580;2022-08-04T15:27:41;6.40;;;5.90;;
60306;SDS011;46155;52.364;6.580;2022-08-04T15:30:08;6.80;;;6.30;;
60306;SDS011;46155;52.364;6.580;2022-08-04T15:32:37;7.40;;;6.20;;
60306;SDS011;46155;52.364;6.580;2022-08-04T15:37:45;6.70;;;6.20;;
60306;SDS011;46155;52.364;6.580;2022-08-04T15:45:50;5.93;;;5.60;;
60306;SDS011;46155;52.364;6.580;2022-08-04T15:53:20;6.27;;;5.63;;
60306;SDS011;46155;52.364;6.580;2022-08-04T15:55:46;5.67;;;5.17;;
60306;SDS011;46155;52.364;6.580;2022-08-04T15:58:11;5.87;;;5.47;;
60306;SDS011;46155;52.364;6.580;2022-08-04T16:05:57;5.93;;;5.53;;
60306;SDS011;46155;52.364;6.580;2022-08-04T16:08:22;6.57;;;5.97;;
60306;SDS011;46155;52.364;6.580;2022-08-04T16:10:49;8.80;;;6.20;;
60306;SDS011;46155;52.364;6.580;2022-08-04T16:13:16;5.57;;;5.27;;
60306;SDS011;46155;52.364;6.580;2022-08-04T16:15:56;6.33;;;5.73;;
60306;SDS011;46155;52.364;6.580;2022-08-04T16:20:49;6.53;;;6.10;;
60306;SDS011;46155;52.364;6.580;2022-08-04T16:29:00;7.53;;;5.87;;
60306;SDS011;46155;52.364;6.580;2022-08-04T16:31:28;5.70;;;5.23;;
60306;SDS011;46155;52.364;6.580;2022-08-04T16:33:57;6.37;;;5.77;;
60306;SDS011;46155;52.364;6.580;2022-08-04T16:39:22;6.53;;;5.93;;
60306;SDS011;46155;52.364;6.580;2022-08-04T16:41:47;6.53;;;5.93;;
60306;SDS011;46155;52.364;6.580;2022-08-04T16:44:32;6.10;;;5.70;;
60306;SDS011;46155;52.364;6.580;2022-08-04T16:47:01;5.97;;;5.60;;
60306;SDS011;46155;52.364;6.580;2022-08-04T16:49:28;5.97;;;5.63;;
60306;SDS011;46155;52.364;6.580;2022-08-04T16:51:59;6.30;;;5.70;;
60306;SDS011;46155;52.364;6.580;2022-08-04T16:54:32;6.23;;;5.83;;
60306;SDS011;46155;52.364;6.580;2022-08-04T16:57:07;6.33;;;5.90;;
60306;SDS011;46155;52.364;6.580;2022-08-04T16:59:33;6.10;;;5.70;;
60306;SDS011;46155;52.364;6.580;2022-08-04T17:01:58;6.67;;;6.17;;
60306;SDS011;46155;52.364;6.580;2022-08-04T17:04:29;6.30;;;5.87;;
60306;SDS011;46155;52.364;6.580;2022-08-04T17:07:03;6.60;;;5.97;;
60306;SDS011;46155;52.364;6.580;2022-08-04T17:09:30;9.67;;;6.23;;
60306;SDS011;46155;52.364;6.580;2022-08-04T17:11:56;5.93;;;5.53;;
60306;SDS011;46155;52.364;6.580;2022-08-04T17:14:25;6.90;;;5.70;;
60306;SDS011;46155;52.364;6.580;2022-08-04T17:16:57;5.47;;;5.17;;
60306;SDS011;46155;52.364;6.580;2022-08-04T17:19:25;5.73;;;5.33;;
60306;SDS011;46155;52.364;6.580;2022-08-04T17:21:50;5.57;;;5.17;;
60306;SDS011;46155;52.364;6.580;2022-08-04T17:24:16;7.23;;;6.00;;
60306;SDS011;46155;52.364;6.580;2022-08-04T17:26:42;5.80;;;5.40;;
60306;SDS011;46155;52.364;6.580;2022-08-04T17:29:08;5.63;;;5.33;;
60306;SDS011;46155;52.364;6.580;2022-08-04T17:31:34;6.67;;;6.13;;
60306;SDS011;46155;52.364;6.580;2022-08-04T17:34:07;6.17;;;5.67;;
60306;SDS011;46155;52.364;6.580;2022-08-04T17:36:35;6.10;;;5.60;;
60306;SDS011;46155;52.364;6.580;2022-08-04T17:39:02;6.30;;;5.90;;
60306;SDS011;46155;52.364;6.580;2022-08-04T17:41:45;5.97;;;5.57;;
60306;SDS011;46155;52.364;6.580;2022-08-04T17:44:11;6.17;;;5.77;;
60306;SDS011;46155;52.364;6.580;2022-08-04T17:46:43;6.17;;;5.77;;
60306;SDS011;46155;52.364;6.580;2022-08-04T17:49:20;6.07;;;5.70;;
60306;SDS011;46155;52.364;6.580;2022-08-04T17:51:47;5.60;;;5.23;;
60306;SDS011;46155;52.364;6.580;2022-08-04T17:54:16;5.90;;;5.50;;
60306;SDS011;46155;52.364;6.580;2022-08-04T17:56:44;8.83;;;5.57;;
60306;SDS011;46155;52.364;6.580;2022-08-04T17:59:21;6.47;;;5.83;;
60306;SDS011;46155;52.364;6.580;2022-08-04T18:02:05;6.00;;;5.70;;
60306;SDS011;46155;52.364;6.580;2022-08-04T18:04:36;5.97;;;5.57;;
60306;SDS011;46155;52.364;6.580;2022-08-04T18:07:14;6.80;;;6.27;;
60306;SDS011;46155;52.364;6.580;2022-08-04T18:12:09;6.17;;;5.80;;
60306;SDS011;46155;52.364;6.580;2022-08-04T18:14:40;6.33;;;5.73;;
60306;SDS011;46155;52.364;6.580;2022-08-04T18:17:10;8.63;;;5.57;;
60306;SDS011;46155;52.364;6.580;2022-08-04T18:19:38;6.77;;;6.37;;
60306;SDS011;46155;52.364;6.580;2022-08-04T18:22:14;5.87;;;5.50;;
60306;SDS011;46155;52.364;6.580;2022-08-04T18:24:40;6.50;;;5.97;;
60306;SDS011;46155;52.364;6.580;2022-08-04T18:27:06;6.63;;;6.23;;
60306;SDS011;46155;52.364;6.580;2022-08-04T18:29:33;5.50;;;5.20;;
60306;SDS011;46155;52.364;6.580;2022-08-04T18:31:58;6.63;;;6.03;;
60306;SDS011;46155;52.364;6.580;2022-08-04T18:34:24;6.53;;;6.03;;
60306;SDS011;46155;52.364;6.580;2022-08-04T18:36:49;6.60;;;6.20;;
60306;SDS011;46155;52.364;6.580;2022-08-04T18:39:14;6.30;;;5.70;;
60306;SDS011;46155;52.364;6.580;2022-08-04T18:41:40;6.67;;;6.00;;
60306;SDS011;46155;52.364;6.580;2022-08-04T18:44:06;6.70;;;6.13;;
60306;SDS011;46155;52.364;6.580;2022-08-04T18:46:31;6.57;;;6.17;;
60306;SDS011;46155;52.364;6.580;2022-08-04T18:48:57;6.20;;;5.80;;
60306;SDS011;46155;52.364;6.580;2022-08-04T18:51:22;6.23;;;5.83;;
60306;SDS011;46155;52.364;6.580;2022-08-04T18:53:47;6.87;;;6.20;;
60306;SDS011;46155;52.364;6.580;2022-08-04T18:56:14;7.27;;;6.43;;
60306;SDS011;46155;52.364;6.580;2022-08-04T18:58:40;5.87;;;5.37;;
60306;SDS011;46155;52.364;6.580;2022-08-04T19:01:06;11.40;;;6.07;;
60306;SDS011;46155;52.364;6.580;2022-08-04T19:03:32;10.33;;;6.17;;
60306;SDS011;46155;52.364;6.580;2022-08-04T19:05:58;6.40;;;5.80;;
60306;SDS011;46155;52.364;6.580;2022-08-04T19:08:23;6.60;;;6.10;;
60306;SDS011;46155;52.364;6.580;2022-08-04T19:10:49;6.80;;;6.40;;
60306;SDS011;46155;52.364;6.580;2022-08-04T19:13:14;7.50;;;6.60;;
60306;SDS011;46155;52.364;6.580;2022-08-04T19:15:39;6.87;;;6.43;;
60306;SDS011;46155;52.364;6.580;2022-08-04T19:18:04;6.67;;;6.27;;
60306;SDS011;46155;52.364;6.580;2022-08-04T19:20:30;7.60;;;7.10;;
60306;SDS011;46155;52.364;6.580;2022-08-04T19:22:56;7.60;;;7.13;;
60306;SDS011;46155;52.364;6.580;2022-08-04T19:25:21;7.83;;;7.33;;
60306;SDS011;46155;52.364;6.580;2022-08-04T19:27:46;7.43;;;7.00;;
60306;SDS011;46155;52.364;6.580;2022-08-04T19:30:12;7.57;;;7.00;;
60306;SDS011;46155;52.364;6.580;2022-08-04T19:32:37;7.53;;;6.93;;
60306;SDS011;46155;52.364;6.580;2022-08-04T19:35:03;7.77;;;7.27;;
60306;SDS011;46155;52.364;6.580;2022-08-04T19:37:29;6.80;;;6.13;;
60306;SDS011;46155;52.364;6.580;2022-08-04T19:39:55;7.53;;;7.00;;
60306;SDS011;46155;52.364;6.580;2022-08-04T19:42:23;8.50;;;7.77;;
60306;SDS011;46155;52.364;6.580;2022-08-04T19:44:49;7.77;;;7.30;;
60306;SDS011;46155;52.364;6.580;2022-08-04T19:47:14;7.80;;;7.33;;
60306;SDS011;46155;52.364;6.580;2022-08-04T19:49:39;7.80;;;7.30;;
60306;SDS011;46155;52.364;6.580;2022-08-04T19:52:05;8.07;;;7.57;;
60306;SDS011;46155;52.364;6.580;2022-08-04T19:54:31;8.00;;;7.40;;
60306;SDS011;46155;52.364;6.580;2022-08-04T19:56:57;7.57;;;7.07;;
60306;SDS011;46155;52.364;6.580;2022-08-04T19:59:22;8.63;;;8.13;;
60306;SDS011;46155;52.364;6.580;2022-08-04T20:01:47;8.33;;;7.73;;
60306;SDS011;46155;52.364;6.580;2022-08-04T20:04:13;8.73;;;7.93;;
60306;SDS011;46155;52.364;6.580;2022-08-04T20:06:38;8.27;;;7.77;;
60306;SDS011;46155;52.364;6.580;2022-08-04T20:09:04;8.40;;;7.60;;
60306;SDS011;46155;52.364;6.580;2022-08-04T20:11:29;9.10;;;8.40;;
60306;SDS011;46155;52.364;6.580;2022-08-04T20:13:55;7.80;;;7.20;;
60306;SDS011;46155;52.364;6.580;2022-08-04T20:16:22;8.20;;;7.67;;
60306;SDS011;46155;52.364;6.580;2022-08-04T20:18:51;8.83;;;8.07;;
60306;SDS011;46155;52.364;6.580;2022-08-04T20:21:16;8.47;;;7.87;;
60306;SDS011;46155;52.364;6.580;2022-08-04T20:23:41;7.83;;;7.33;;
60306;SDS011;46155;52.364;6.580;2022-08-04T20:26:07;8.87;;;8.17;;
60306;SDS011;46155;52.364;6.580;2022-08-04T20:28:33;8.17;;;7.57;;
60306;SDS011;46155;52.364;6.580;2022-08-04T20:30:58;8.63;;;7.80;;
60306;SDS011;46155;52.364;6.580;2022-08-04T20:33:24;8.00;;;7.60;;
60306;SDS011;46155;52.364;6.580;2022-08-04T20:35:49;8.23;;;7.60;;
60306;SDS011;46155;52.364;6.580;2022-08-04T20:38:14;7.70;;;7.30;;
60306;SDS011;46155;52.364;6.580;2022-08-04T20:40:40;8.67;;;8.03;;
60306;SDS011;46155;52.364;6.580;2022-08-04T20:43:05;10.27;;;9.23;;
60306;SDS011;46155;52.364;6.580;2022-08-04T20:45:30;9.03;;;8.43;;
60306;SDS011;46155;52.364;6.580;2022-08-04T20:47:56;9.33;;;8.63;;
60306;SDS011;46155;52.364;6.580;2022-08-04T20:50:21;8.60;;;8.00;;
60306;SDS011;46155;52.364;6.580;2022-08-04T20:52:47;9.00;;;8.33;;
60306;SDS011;46155;52.364;6.580;2022-08-04T20:55:12;9.43;;;8.67;;
60306;SDS011;46155;52.364;6.580;2022-08-04T20:57:38;8.83;;;8.13;;
60306;SDS011;46155;52.364;6.580;2022-08-04T21:00:04;9.50;;;8.60;;
60306;SDS011;46155;52.364;6.580;2022-08-04T21:02:32;8.70;;;8.10;;
60306;SDS011;46155;52.364;6.580;2022-08-04T21:04:58;9.57;;;8.90;;
60306;SDS011;46155;52.364;6.580;2022-08-04T21:07:23;9.40;;;8.70;;
60306;SDS011;46155;52.364;6.580;2022-08-04T21:09:49;8.73;;;7.87;;
60306;SDS011;46155;52.364;6.580;2022-08-04T21:12:15;9.20;;;8.40;;
60306;SDS011;46155;52.364;6.580;2022-08-04T21:14:41;9.80;;;8.90;;
60306;SDS011;46155;52.364;6.580;2022-08-04T21:17:08;9.73;;;9.03;;
60306;SDS011;46155;52.364;6.580;2022-08-04T21:19:33;9.67;;;8.97;;
60306;SDS011;46155;52.364;6.580;2022-08-04T21:21:59;9.83;;;9.23;;
60306;SDS011;46155;52.364;6.580;2022-08-04T21:24:25;10.27;;;9.47;;
60306;SDS011;46155;52.364;6.580;2022-08-04T21:26:53;10.07;;;9.37;;
60306;SDS011;46155;52.364;6.580;2022-08-04T21:29:19;10.87;;;9.87;;
60306;SDS011;46155;52.364;6.580;2022-08-04T21:31:45;9.70;;;9.00;;
60306;SDS011;46155;52.364;6.580;2022-08-04T21:34:10;10.03;;;9.33;;
60306;SDS011;46155;52.364;6.580;2022-08-04T21:36:36;10.37;;;9.47;;
60306;SDS011;46155;52.364;6.580;2022-08-04T21:39:02;10.37;;;9.67;;
60306;SDS011;46155;52.364;6.580;2022-08-04T21:41:28;9.93;;;9.23;;
60306;SDS011;46155;52.364;6.580;2022-08-04T21:43:53;9.90;;;9.07;;
60306;SDS011;46155;52.364;6.580;2022-08-04T21:46:19;9.87;;;9.07;;
60306;SDS011;46155;52.364;6.580;2022-08-04T21:48:44;10.93;;;10.20;;
60306;SDS011;46155;52.364;6.580;2022-08-04T21:51:23;8.97;;;8.33;;
60306;SDS011;46155;52.364;6.580;2022-08-04T21:53:50;9.13;;;8.43;;
60306;SDS011;46155;52.364;6.580;2022-08-04T21:56:16;10.63;;;9.83;;
60306;SDS011;46155;52.364;6.580;2022-08-04T21:58:41;10.37;;;9.67;;
